sensor_id;sensor_type;location;lat;lon;timestamp;P1;durP1;ratioP1;P2;durP2;ratioP2
19495;SDS011;9888;48.606;9.630;2022-08-21T01:01:37;7.50;;;4.07;;
19495;SDS011;9888;48.606;9.630;2022-08-21T01:04:05;7.80;;;4.50;;
19495;SDS011;9888;48.606;9.630;2022-08-21T01:06:34;7.63;;;4.20;;
19495;SDS011;9888;48.606;9.630;2022-08-21T01:56:09;10.40;;;4.33;;
19495;SDS011;9888;48.606;9.630;2022-08-21T01:58:41;12.27;;;4.77;;
19495;SDS011;9888;48.606;9.630;2022-08-21T02:01:10;9.83;;;4.83;;
19495;SDS011;9888;48.606;9.630;2022-08-21T02:03:39;8.20;;;4.63;;
19495;SDS011;9888;48.606;9.630;2022-08-21T02:06:11;10.10;;;4.90;;
19495;SDS011;9888;48.606;9.630;2022-08-21T02:08:40;9.43;;;5.27;;
19495;SDS011;9888;48.606;9.630;2022-08-21T02:11:08;10.00;;;5.40;;
19495;SDS011;9888;48.606;9.630;2022-08-21T02:13:35;11.37;;;5.17;;
19495;SDS011;9888;48.606;9.630;2022-08-21T02:16:03;10.10;;;4.80;;
19495;SDS011;9888;48.606;9.630;2022-08-21T02:18:32;13.03;;;4.97;;
19495;SDS011;9888;48.606;9.630;2022-08-21T02:21:01;9.60;;;4.43;;
19495;SDS011;9888;48.606;9.630;2022-08-21T02:23:29;9.40;;;5.17;;
19495;SDS011;9888;48.606;9.630;2022-08-21T02:25:58;10.57;;;4.60;;
19495;SDS011;9888;48.606;9.630;2022-08-21T02:28:27;10.57;;;4.97;;
19495;SDS011;9888;48.606;9.630;2022-08-21T02:30:57;10.07;;;5.23;;
19495;SDS011;9888;48.606;9.630;2022-08-21T02:33:24;8.40;;;4.63;;
19495;SDS011;9888;48.606;9.630;2022-08-21T02:35:57;8.40;;;5.10;;
19495;SDS011;9888;48.606;9.630;2022-08-21T02:38:29;11.93;;;4.93;;
19495;SDS011;9888;48.606;9.630;2022-08-21T03:04:10;9.47;;;5.40;;
19495;SDS011;9888;48.606;9.630;2022-08-21T03:06:39;9.93;;;5.43;;
19495;SDS011;9888;48.606;9.630;2022-08-21T03:09:17;9.50;;;5.47;;
19495;SDS011;9888;48.606;9.630;2022-08-21T03:11:47;10.53;;;4.77;;
19495;SDS011;9888;48.606;9.630;2022-08-21T03:14:15;9.60;;;4.83;;
19495;SDS011;9888;48.606;9.630;2022-08-21T03:16:44;10.00;;;5.10;;
19495;SDS011;9888;48.606;9.630;2022-08-21T04:12:34;15.80;;;5.07;;
19495;SDS011;9888;48.606;9.630;2022-08-21T06:16:00;15.07;;;7.30;;
19495;SDS011;9888;48.606;9.630;2022-08-21T06:18:41;13.30;;;7.40;;
19495;SDS011;9888;48.606;9.630;2022-08-21T06:21:11;10.50;;;6.80;;
19495;SDS011;9888;48.606;9.630;2022-08-21T06:23:44;11.37;;;7.20;;
19495;SDS011;9888;48.606;9.630;2022-08-21T06:29:37;14.40;;;7.50;;
19495;SDS011;9888;48.606;9.630;2022-08-21T06:32:10;13.90;;;7.73;;
19495;SDS011;9888;48.606;9.630;2022-08-21T06:34:58;12.87;;;7.20;;
19495;SDS011;9888;48.606;9.630;2022-08-21T06:37:42;10.27;;;6.90;;
19495;SDS011;9888;48.606;9.630;2022-08-21T06:40:12;11.70;;;7.47;;
19495;SDS011;9888;48.606;9.630;2022-08-21T06:49:25;19.33;;;7.33;;
19495;SDS011;9888;48.606;9.630;2022-08-21T06:51:52;16.03;;;8.87;;
19495;SDS011;9888;48.606;9.630;2022-08-21T06:54:20;13.00;;;7.57;;
19495;SDS011;9888;48.606;9.630;2022-08-21T06:56:49;11.93;;;7.50;;
19495;SDS011;9888;48.606;9.630;2022-08-21T06:59:17;11.60;;;7.40;;
19495;SDS011;9888;48.606;9.630;2022-08-21T07:01:45;10.80;;;6.80;;
19495;SDS011;9888;48.606;9.630;2022-08-21T07:04:19;10.10;;;6.90;;
19495;SDS011;9888;48.606;9.630;2022-08-21T07:07:01;12.70;;;7.47;;
19495;SDS011;9888;48.606;9.630;2022-08-21T07:09:39;12.37;;;7.40;;
19495;SDS011;9888;48.606;9.630;2022-08-21T07:12:09;11.43;;;6.50;;
19495;SDS011;9888;48.606;9.630;2022-08-21T07:14:37;10.03;;;6.33;;
19495;SDS011;9888;48.606;9.630;2022-08-21T07:17:06;13.43;;;6.57;;
19495;SDS011;9888;48.606;9.630;2022-08-21T07:19:38;10.13;;;5.57;;
19495;SDS011;9888;48.606;9.630;2022-08-21T07:22:07;12.00;;;8.33;;
19495;SDS011;9888;48.606;9.630;2022-08-21T07:31:27;16.37;;;7.80;;
19495;SDS011;9888;48.606;9.630;2022-08-21T07:33:57;13.13;;;8.37;;
19495;SDS011;9888;48.606;9.630;2022-08-21T07:36:38;18.60;;;8.33;;
19495;SDS011;9888;48.606;9.630;2022-08-21T07:48:51;8.53;;;4.70;;
19495;SDS011;9888;48.606;9.630;2022-08-21T07:51:22;13.00;;;5.40;;
19495;SDS011;9888;48.606;9.630;2022-08-21T07:53:53;9.23;;;5.10;;
19495;SDS011;9888;48.606;9.630;2022-08-21T07:56:24;11.57;;;5.67;;
19495;SDS011;9888;48.606;9.630;2022-08-21T07:58:57;9.73;;;5.33;;
19495;SDS011;9888;48.606;9.630;2022-08-21T08:01:28;9.87;;;5.20;;
19495;SDS011;9888;48.606;9.630;2022-08-21T08:04:06;9.00;;;4.60;;
19495;SDS011;9888;48.606;9.630;2022-08-21T08:06:38;16.83;;;6.60;;
19495;SDS011;9888;48.606;9.630;2022-08-21T08:09:10;14.77;;;6.03;;
19495;SDS011;9888;48.606;9.630;2022-08-21T08:11:53;11.27;;;6.40;;
19495;SDS011;9888;48.606;9.630;2022-08-21T08:21:19;9.73;;;5.20;;
19495;SDS011;9888;48.606;9.630;2022-08-21T08:24:22;17.13;;;6.03;;
19495;SDS011;9888;48.606;9.630;2022-08-21T08:27:02;11.33;;;6.10;;
19495;SDS011;9888;48.606;9.630;2022-08-21T08:29:58;9.73;;;5.40;;
19495;SDS011;9888;48.606;9.630;2022-08-21T08:32:33;12.00;;;5.30;;
19495;SDS011;9888;48.606;9.630;2022-08-21T08:42:08;10.10;;;5.53;;
19495;SDS011;9888;48.606;9.630;2022-08-21T08:44:59;12.13;;;5.50;;
19495;SDS011;9888;48.606;9.630;2022-08-21T22:14:16;9.20;;;4.90;;
19495;SDS011;9888;48.606;9.630;2022-08-21T22:16:46;11.60;;;4.80;;
19495;SDS011;9888;48.606;9.630;2022-08-21T22:21:59;9.07;;;5.30;;
19495;SDS011;9888;48.606;9.630;2022-08-21T22:24:36;10.53;;;5.27;;
19495;SDS011;9888;48.606;9.630;2022-08-21T22:27:14;10.63;;;5.50;;
19495;SDS011;9888;48.606;9.630;2022-08-21T22:29:50;8.30;;;4.70;;
19495;SDS011;9888;48.606;9.630;2022-08-21T22:32:45;10.83;;;5.20;;
19495;SDS011;9888;48.606;9.630;2022-08-21T22:35:19;10.00;;;4.73;;
19495;SDS011;9888;48.606;9.630;2022-08-21T22:37:55;8.40;;;5.10;;
19495;SDS011;9888;48.606;9.630;2022-08-21T22:40:45;9.67;;;5.17;;
19495;SDS011;9888;48.606;9.630;2022-08-21T22:43:20;8.77;;;4.70;;
19495;SDS011;9888;48.606;9.630;2022-08-21T22:48:28;11.57;;;5.10;;
19495;SDS011;9888;48.606;9.630;2022-08-21T22:51:06;8.70;;;4.93;;
19495;SDS011;9888;48.606;9.630;2022-08-21T22:53:40;11.70;;;5.07;;
19495;SDS011;9888;48.606;9.630;2022-08-21T22:56:09;10.80;;;5.20;;
19495;SDS011;9888;48.606;9.630;2022-08-21T22:58:58;10.50;;;5.27;;
19495;SDS011;9888;48.606;9.630;2022-08-21T23:01:38;10.80;;;5.10;;
19495;SDS011;9888;48.606;9.630;2022-08-21T23:04:18;9.50;;;5.50;;
19495;SDS011;9888;48.606;9.630;2022-08-21T23:06:52;9.17;;;5.27;;
19495;SDS011;9888;48.606;9.630;2022-08-21T23:11:59;11.47;;;5.33;;
19495;SDS011;9888;48.606;9.630;2022-08-21T23:14:29;8.97;;;5.00;;
19495;SDS011;9888;48.606;9.630;2022-08-21T23:17:03;8.93;;;4.90;;
19495;SDS011;9888;48.606;9.630;2022-08-21T23:19:48;8.93;;;5.17;;
19495;SDS011;9888;48.606;9.630;2022-08-21T23:31:17;9.27;;;5.37;;
19495;SDS011;9888;48.606;9.630;2022-08-21T23:34:09;8.50;;;5.00;;
19495;SDS011;9888;48.606;9.630;2022-08-21T23:48:55;10.93;;;5.67;;
